createdAt,value
2023-05-10T00:01:45.724Z,94313.69
2023-05-10T00:04:13.518Z,94313.13
2023-05-10T00:06:41.267Z,94308.50
2023-05-10T00:09:08.927Z,94304.09
2023-05-10T00:11:36.548Z,94301.91
2023-05-10T00:14:05.668Z,94313.41
2023-05-10T00:16:33.428Z,94298.09
2023-05-10T00:19:01.086Z,94296.72
2023-05-10T00:21:29.301Z,94300.56
2023-05-10T00:23:56.975Z,94297.31
2023-05-10T00:26:24.588Z,94297.88
2023-05-10T00:28:52.205Z,94289.13
2023-05-10T00:31:21.257Z,94294.59
2023-05-10T00:33:48.805Z,94290.22
2023-05-10T00:36:16.472Z,94289.13
2023-05-10T00:38:44.073Z,94295.94
2023-05-10T00:41:11.685Z,94292.38
2023-05-10T00:43:39.286Z,94289.94
2023-05-10T00:46:07.356Z,94285.81
2023-05-10T00:48:36.543Z,94282.81
2023-05-10T00:51:04.606Z,94292.69
2023-05-10T00:53:33.380Z,94279.03
2023-05-10T00:56:01.065Z,94276.00
2023-05-10T00:58:29.891Z,94278.47
2023-05-10T01:00:58.098Z,94277.34
2023-05-10T01:03:25.880Z,94278.19
2023-05-10T01:05:54.905Z,94275.44
2023-05-10T01:08:22.709Z,94279.03
2023-05-10T01:10:51.012Z,94271.38
2023-05-10T01:13:33.868Z,94272.75
2023-05-10T01:16:03.416Z,94274.13
2023-05-10T01:18:31.890Z,94280.41
2023-05-10T01:21:07.246Z,94270.03
2023-05-10T01:24:05.662Z,94273.03
2023-05-10T01:26:59.330Z,94268.41
2023-05-10T01:29:41.484Z,94274.97
2023-05-10T01:32:23.539Z,94276.06
2023-05-10T01:34:57.338Z,94270.88
2023-05-10T01:37:31.374Z,94269.25
2023-05-10T01:40:03.432Z,94274.19
2023-05-10T01:42:36.877Z,94265.44
2023-05-10T01:45:11.048Z,94267.88
2023-05-10T01:47:43.015Z,94269.53
2023-05-10T01:50:14.493Z,94272.81
2023-05-10T01:52:44.814Z,94270.09
2023-05-10T01:55:16.115Z,94272.81
2023-05-10T01:57:45.883Z,94269.56
2023-05-10T02:00:14.652Z,94279.94
2023-05-10T02:02:48.162Z,94269.56
2023-05-10T02:05:16.920Z,94277.75
2023-05-10T02:07:45.764Z,94281.31
2023-05-10T02:10:14.409Z,94277.22
2023-05-10T02:12:44.135Z,94282.09
2023-05-10T02:15:14.107Z,94291.66
2023-05-10T02:17:42.345Z,94280.22
2023-05-10T02:20:12.669Z,94283.75
2023-05-10T02:22:41.454Z,94292.78
2023-05-10T02:25:10.768Z,94283.78
2023-05-10T02:27:38.951Z,94289.78
2023-05-10T02:30:08.411Z,94288.16
2023-05-10T02:32:36.602Z,94293.91
2023-05-10T02:35:05.141Z,94297.44
2023-05-10T02:37:35.461Z,94286.50
2023-05-10T02:40:04.589Z,94286.50
2023-05-10T02:42:35.371Z,94291.16
2023-05-10T02:45:04.551Z,94289.25
2023-05-10T02:47:32.352Z,94288.44
2023-05-10T02:50:00.443Z,94281.63
2023-05-10T02:52:30.368Z,94296.34
2023-05-10T02:55:03.283Z,94288.44
2023-05-10T02:57:34.794Z,94296.09
2023-05-10T03:00:03.741Z,94296.09
2023-05-10T03:02:31.961Z,94287.91
2023-05-10T03:04:59.768Z,94301.31
2023-05-10T03:07:27.583Z,94302.38
2023-05-10T03:09:55.191Z,94301.31
2023-05-10T03:12:33.668Z,94296.13
2023-05-10T03:15:06.149Z,94301.84
2023-05-10T03:17:42.035Z,94305.13
2023-05-10T03:20:12.660Z,94308.69
2023-05-10T03:22:43.399Z,94311.16
2023-05-10T03:25:12.979Z,94307.84
2023-05-10T03:27:43.746Z,94303.75
2023-05-10T03:30:13.371Z,94308.94
2023-05-10T03:32:41.072Z,94315.50
2023-05-10T03:35:09.673Z,94310.03
2023-05-10T03:37:37.389Z,94319.34
2023-05-10T03:40:06.042Z,94319.88
2023-05-10T03:42:33.666Z,94320.16
2023-05-10T03:45:02.691Z,94317.97
2023-05-10T03:47:30.786Z,94309.50
2023-05-10T03:49:58.520Z,94317.72
2023-05-10T03:52:26.253Z,94316.06
2023-05-10T03:54:53.870Z,94334.09
2023-05-10T03:57:21.615Z,94328.91
2023-05-10T03:59:49.242Z,94321.53
2023-05-10T04:02:18.223Z,94337.91
2023-05-10T04:04:45.849Z,94339.00
2023-05-10T04:07:13.443Z,94329.97
2023-05-10T04:09:41.083Z,94330.81
2023-05-10T04:12:10.853Z,94337.91
2023-05-10T04:14:38.821Z,94335.97
2023-05-10T04:17:06.706Z,94334.91
2023-05-10T04:19:35.777Z,94340.91
2023-05-10T04:22:04.519Z,94346.38
2023-05-10T04:24:32.150Z,94348.00
2023-05-10T04:26:59.701Z,94355.66
2023-05-10T04:29:27.683Z,94358.13
2023-05-10T04:31:55.297Z,94352.09
2023-05-10T04:34:23.069Z,94352.63
2023-05-10T04:36:52.016Z,94344.44
2023-05-10T04:39:19.611Z,94349.91
2023-05-10T04:41:47.190Z,94358.66
2023-05-10T04:44:14.806Z,94354.28
2023-05-10T04:46:42.539Z,94361.41
2023-05-10T04:49:10.211Z,94359.47
2023-05-10T04:51:37.807Z,94360.81
2023-05-10T04:54:07.020Z,94369.84
2023-05-10T04:56:34.901Z,94372.84
2023-05-10T04:59:02.653Z,94368.47
2023-05-10T05:01:30.366Z,94374.19
2023-05-10T05:03:58.170Z,94375.03
2023-05-10T05:06:28.098Z,94382.66
2023-05-10T05:08:55.865Z,94378.59
2023-05-10T05:11:24.828Z,94378.03
2023-05-10T05:13:52.531Z,94389.78
2023-05-10T05:16:20.261Z,94379.66
2023-05-10T05:18:47.898Z,94384.84
2023-05-10T05:21:16.249Z,94379.97
2023-05-10T05:23:44.162Z,94395.22
2023-05-10T05:26:12.062Z,94392.22
2023-05-10T05:28:41.031Z,94400.16
2023-05-10T05:31:10.091Z,94405.63
2023-05-10T05:33:37.973Z,94402.06
2023-05-10T05:36:06.562Z,94408.88
2023-05-10T05:38:34.208Z,94410.81
2023-05-10T05:41:01.872Z,94409.72
2023-05-10T05:43:29.499Z,94405.06
2023-05-10T05:45:59.081Z,94411.06
2023-05-10T05:48:26.839Z,94418.72
2023-05-10T05:50:56.993Z,94415.97
2023-05-10T05:53:24.664Z,94422.00
2023-05-10T05:55:56.088Z,94425.00
2023-05-10T05:58:23.805Z,94424.16
2023-05-10T06:00:51.528Z,94424.75
2023-05-10T06:03:20.770Z,94435.94
2023-05-10T06:05:48.621Z,94424.75
2023-05-10T06:08:16.390Z,94431.56
2023-05-10T06:10:44.043Z,94435.66
2023-05-10T06:13:11.885Z,94435.66
2023-05-10T06:15:39.770Z,94446.03
2023-05-10T06:18:07.677Z,94440.84
2023-05-10T06:20:36.755Z,94456.94
2023-05-10T06:23:04.389Z,94456.94
2023-05-10T06:25:31.972Z,94456.69
2023-05-10T06:27:59.634Z,94462.41
2023-05-10T06:30:29.309Z,94462.94
2023-05-10T06:32:57.315Z,94461.59
2023-05-10T06:35:25.221Z,94467.31
2023-05-10T06:37:54.517Z,94467.31
2023-05-10T06:40:22.365Z,94467.84
2023-05-10T06:42:50.251Z,94469.19
2023-05-10T06:45:18.379Z,94479.84
2023-05-10T06:47:46.851Z,94473.00
2023-05-10T06:50:14.514Z,94475.44
2023-05-10T06:52:42.175Z,94471.34
2023-05-10T06:55:11.998Z,94470.25
2023-05-10T06:57:39.690Z,94484.47
2023-05-10T07:00:10.580Z,94482.53
2023-05-10T07:02:38.342Z,94480.03
2023-05-10T07:05:06.684Z,94478.06
2023-05-10T07:07:34.353Z,94476.69
2023-05-10T07:10:01.978Z,94485.78
2023-05-10T07:12:31.147Z,94481.44
2023-05-10T07:14:58.807Z,94476.81
2023-05-10T07:17:26.646Z,94477.31
2023-05-10T07:19:54.264Z,94483.81
2023-05-10T07:22:21.860Z,94484.59
2023-05-10T07:24:49.494Z,94488.13
2023-05-10T07:27:17.142Z,94490.53
2023-05-10T07:29:46.136Z,94492.47
2023-05-10T07:32:13.724Z,94492.94
2023-05-10T07:34:41.378Z,94495.41
2023-05-10T07:37:08.996Z,94489.97
2023-05-10T07:39:36.709Z,94495.13
2023-05-10T07:42:04.859Z,94493.13
2023-05-10T07:44:32.411Z,94490.38
2023-05-10T07:47:01.526Z,94499.72
2023-05-10T07:49:29.308Z,94492.00
2023-05-10T07:51:56.999Z,94494.94
2023-05-10T07:54:24.670Z,94489.94
2023-05-10T07:56:53.006Z,94491.75
2023-05-10T07:59:21.010Z,94492.56
2023-05-10T08:01:48.592Z,94498.56
2023-05-10T08:04:17.532Z,94489.81
2023-05-10T08:06:45.138Z,94484.44
2023-05-10T08:09:12.951Z,94489.81
2023-05-10T08:11:40.569Z,94490.88
2023-05-10T08:14:08.153Z,94491.31
2023-05-10T08:16:36.059Z,94483.63
2023-05-10T08:19:03.728Z,94489.66
2023-05-10T08:21:33.218Z,94489.66
2023-05-10T08:24:00.876Z,94490.47
2023-05-10T08:26:28.577Z,94486.88
2023-05-10T08:28:56.176Z,94496.75
2023-05-10T08:31:23.804Z,94492.84
2023-05-10T08:33:52.444Z,94494.75
2023-05-10T08:36:22.533Z,94489.97
2023-05-10T08:38:52.581Z,94496.66
2023-05-10T08:41:22.325Z,94498.25
2023-05-10T08:43:50.126Z,94495.47
2023-05-10T08:46:19.463Z,94495.88
2023-05-10T08:48:48.305Z,94496.00
2023-05-10T08:51:19.422Z,94503.72
2023-05-10T08:53:47.989Z,94498.81
2023-05-10T08:56:18.799Z,94503.94
2023-05-10T08:58:46.537Z,94507.88
2023-05-10T09:01:15.100Z,94502.59
2023-05-10T09:03:43.006Z,94499.84
2023-05-10T09:06:10.780Z,94501.84
2023-05-10T09:08:38.762Z,94497.00
2023-05-10T09:11:06.933Z,94502.63
2023-05-10T09:13:37.677Z,94504.44
2023-05-10T09:16:13.899Z,94504.09
2023-05-10T09:18:50.309Z,94494.28
2023-05-10T09:21:17.993Z,94502.22
2023-05-10T09:23:48.125Z,94497.66
2023-05-10T09:26:16.360Z,94499.31
2023-05-10T09:28:55.649Z,94495.19
2023-05-10T09:31:23.570Z,94501.81
2023-05-10T09:33:51.896Z,94494.72
2023-05-10T09:36:19.756Z,94499.94
2023-05-10T09:38:48.789Z,94495.00
2023-05-10T09:41:21.139Z,94494.69
2023-05-10T09:43:48.793Z,94500.69
2023-05-10T09:46:18.541Z,94497.47
2023-05-10T09:48:47.269Z,94499.94
2023-05-10T09:51:21.362Z,94496.91
2023-05-10T09:53:51.437Z,94504.25
2023-05-10T09:56:38.101Z,94507.25
2023-05-10T09:59:05.868Z,94502.91
2023-05-10T10:01:35.331Z,94498.41
2023-05-10T10:04:05.355Z,94501.31
2023-05-10T10:06:37.766Z,94497.38
2023-05-10T10:09:05.957Z,94503.94
2023-05-10T10:11:33.766Z,94492.75
2023-05-10T10:14:01.589Z,94492.88
2023-05-10T10:16:29.449Z,94497.13
2023-05-10T10:18:58.596Z,94503.94
2023-05-10T10:21:26.370Z,94511.50
2023-05-10T10:23:54.607Z,94512.03
2023-05-10T10:26:22.990Z,94512.94
2023-05-10T10:28:54.214Z,94523.78
2023-05-10T10:31:30.219Z,94519.53
2023-05-10T10:34:08.778Z,94515.53
2023-05-10T10:36:42.633Z,94524.69
2023-05-10T10:39:13.756Z,94516.50
2023-05-10T10:41:44.942Z,94514.75
2023-05-10T10:44:28.740Z,94521.91
2023-05-10T10:47:06.412Z,94534.81
2023-05-10T10:49:39.835Z,94520.00
2023-05-10T10:52:29.493Z,94528.78
2023-05-10T10:55:02.229Z,94520.53
2023-05-10T10:57:31.142Z,94528.81
2023-05-10T11:00:37.516Z,94519.50
2023-05-10T11:03:08.411Z,94513.72
2023-05-10T11:05:42.614Z,94524.09
2023-05-10T11:08:12.710Z,94515.59
2023-05-10T11:10:41.058Z,94510.69
2023-05-10T11:13:09.919Z,94520.81
2023-05-10T11:15:38.113Z,94519.53
2023-05-10T11:18:21.306Z,94524.16
2023-05-10T11:20:54.020Z,94519.75
2023-05-10T11:23:22.362Z,94519.00
2023-05-10T11:25:51.045Z,94514.63
2023-05-10T11:28:19.521Z,94522.84
2023-05-10T11:30:47.292Z,94520.63
2023-05-10T11:33:18.832Z,94517.59
2023-05-10T11:35:46.394Z,94523.63
2023-05-10T11:38:15.928Z,94520.63
2023-05-10T11:40:43.767Z,94511.56
2023-05-10T11:43:12.530Z,94516.19
2023-05-10T11:45:40.374Z,94514.81
2023-05-10T11:48:08.107Z,94520.03
2023-05-10T11:50:35.846Z,94521.16
2023-05-10T11:53:03.417Z,94513.56
2023-05-10T11:55:35.644Z,94508.34
2023-05-10T11:58:03.504Z,94510.78
2023-05-10T12:00:31.849Z,94512.47
2023-05-10T12:02:59.688Z,94524.47
2023-05-10T12:05:27.503Z,94521.41
2023-05-10T12:07:55.092Z,94526.38
2023-05-10T12:10:28.006Z,94533.50
2023-05-10T12:12:58.407Z,94533.00
2023-05-10T12:15:26.636Z,94533.03
2023-05-10T12:17:54.275Z,94535.56
2023-05-10T12:20:23.420Z,94546.25
2023-05-10T12:22:53.675Z,94553.66
2023-05-10T12:25:22.954Z,94547.59
2023-05-10T12:27:52.760Z,94557.25
2023-05-10T12:30:26.815Z,94555.34
2023-05-10T12:32:54.810Z,94555.88
2023-05-10T12:35:24.858Z,94552.63
2023-05-10T12:37:52.924Z,94559.47
2023-05-10T12:40:21.078Z,94557.56
2023-05-10T12:42:49.651Z,94561.38
2023-05-10T12:45:17.397Z,94552.06
2023-05-10T12:47:46.528Z,94555.38
2023-05-10T12:50:14.262Z,94558.13
2023-05-10T12:52:42.141Z,94561.63
2023-05-10T12:55:10.473Z,94558.09
2023-05-10T12:57:38.058Z,94560.00
2023-05-10T13:00:07.016Z,94557.56
2023-05-10T13:02:34.630Z,94560.84
2023-05-10T13:05:03.917Z,94554.00
2023-05-10T13:07:31.552Z,94559.19
2023-05-10T13:09:59.162Z,94567.38
2023-05-10T13:12:26.799Z,94561.09
2023-05-10T13:14:54.447Z,94557.81
2023-05-10T13:17:22.039Z,94567.94
2023-05-10T13:19:49.666Z,94571.78
2023-05-10T13:22:25.611Z,94568.50
2023-05-10T13:25:00.450Z,94578.34
2023-05-10T13:27:28.107Z,94580.25
2023-05-10T13:29:55.928Z,94579.16
2023-05-10T13:32:23.576Z,94584.38
2023-05-10T13:34:51.331Z,94589.25
2023-05-10T13:37:20.457Z,94599.03
2023-05-10T13:39:48.074Z,94601.72
2023-05-10T13:42:15.775Z,94605.66
2023-05-10T13:44:43.894Z,94613.97
2023-05-10T13:47:12.350Z,94603.66
2023-05-10T13:49:40.021Z,94601.41
2023-05-10T13:52:08.002Z,94610.75
2023-05-10T13:54:37.952Z,94610.50
2023-05-10T13:57:05.821Z,94604.63
2023-05-10T13:59:33.715Z,94603.00
2023-05-10T14:02:03.475Z,94602.56
2023-05-10T14:04:31.415Z,94606.94
2023-05-10T14:06:59.103Z,94601.50
2023-05-10T14:09:26.719Z,94598.50
2023-05-10T14:11:56.812Z,94601.00
2023-05-10T14:14:24.548Z,94600.25
2023-05-10T14:16:52.374Z,94602.75
2023-05-10T14:19:20.110Z,94599.19
2023-05-10T14:21:47.774Z,94602.75
2023-05-10T14:24:15.415Z,94606.06
2023-05-10T14:26:43.043Z,94607.97
2023-05-10T14:29:12.696Z,94607.94
2023-05-10T14:31:40.488Z,94613.44
2023-05-10T14:34:08.130Z,94608.25
2023-05-10T14:36:35.764Z,94609.34
2023-05-10T14:39:03.830Z,94610.94
2023-05-10T14:41:31.953Z,94609.06
2023-05-10T14:43:59.614Z,94613.69
2023-05-10T14:46:28.939Z,94619.16
2023-05-10T14:48:56.655Z,94617.25
2023-05-10T14:51:24.282Z,94614.00
2023-05-10T14:53:51.954Z,94619.75
2023-05-10T14:56:19.596Z,94630.41
2023-05-10T14:58:47.206Z,94626.25
2023-05-10T15:01:14.890Z,94627.91
2023-05-10T15:03:44.357Z,94633.91
2023-05-10T15:06:12.849Z,94631.13
2023-05-10T15:08:40.434Z,94627.28
2023-05-10T15:11:08.040Z,94627.31
2023-05-10T15:13:35.619Z,94633.31
2023-05-10T15:16:03.260Z,94631.69
2023-05-10T15:18:30.940Z,94633.88
2023-05-10T15:20:59.848Z,94628.41
2023-05-10T15:23:27.592Z,94637.69
2023-05-10T15:25:56.656Z,94634.16
2023-05-10T15:28:24.501Z,94635.22
2023-05-10T15:30:52.181Z,94631.66
2023-05-10T15:33:19.757Z,94634.94
2023-05-10T15:35:47.348Z,94632.44
2023-05-10T15:38:16.396Z,94634.91
2023-05-10T15:40:43.990Z,94643.09
2023-05-10T15:43:11.584Z,94638.19
2023-05-10T15:45:39.198Z,94639.81
2023-05-10T15:48:07.430Z,94638.16
2023-05-10T15:50:35.118Z,94654.03
2023-05-10T15:53:02.935Z,94639.81
2023-05-10T15:55:32.283Z,94644.16
2023-05-10T15:57:59.856Z,94644.44
2023-05-10T16:00:27.664Z,94637.63
2023-05-10T16:02:55.531Z,94646.34
2023-05-10T16:05:23.300Z,94657.25
2023-05-10T16:07:51.000Z,94651.50
2023-05-10T16:10:18.681Z,94653.91
2023-05-10T16:12:47.629Z,94661.00
2023-05-10T16:15:15.431Z,94668.63
2023-05-10T16:17:43.316Z,94661.47
2023-05-10T16:20:11.359Z,94662.34
2023-05-10T16:22:39.019Z,94663.13
2023-05-10T16:25:07.541Z,94671.28
2023-05-10T16:27:35.129Z,94669.00
2023-05-10T16:30:04.178Z,94669.31
2023-05-10T16:32:31.823Z,94675.56
2023-05-10T16:35:00.101Z,94676.63
2023-05-10T16:37:27.733Z,94681.28
2023-05-10T16:39:55.311Z,94679.72
2023-05-10T16:42:23.971Z,94673.41
2023-05-10T16:44:51.571Z,94684.66
2023-05-10T16:47:20.729Z,94678.81
2023-05-10T16:49:48.339Z,94675.28
2023-05-10T16:52:15.936Z,94682.13
2023-05-10T16:54:43.561Z,94681.03
2023-05-10T16:57:11.251Z,94688.06
2023-05-10T16:59:39.211Z,94689.66
2023-05-10T17:02:06.817Z,94691.50
2023-05-10T17:04:35.975Z,94696.75
2023-05-10T17:07:03.587Z,94700.84
2023-05-10T17:09:31.230Z,94703.03
2023-05-10T17:11:58.811Z,94702.38
2023-05-10T17:14:26.384Z,94704.50
2023-05-10T17:16:55.069Z,94697.03
2023-05-10T17:19:24.777Z,94705.75
2023-05-10T17:21:55.097Z,94701.81
2023-05-10T17:24:22.722Z,94705.56
2023-05-10T17:26:50.305Z,94710.25
2023-05-10T17:29:17.988Z,94709.72
2023-05-10T17:31:45.602Z,94702.06
2023-05-10T17:34:13.178Z,94705.34
2023-05-10T17:36:40.822Z,94704.59
2023-05-10T17:39:10.024Z,94707.56
2023-05-10T17:41:37.744Z,94708.88
2023-05-10T17:44:05.383Z,94711.91
2023-05-10T17:46:33.550Z,94706.75
2023-05-10T17:49:01.185Z,94710.00
2023-05-10T17:51:29.450Z,94714.63
2023-05-10T17:53:57.079Z,94710.00
2023-05-10T17:56:26.047Z,94711.34
2023-05-10T17:58:53.662Z,94718.97
2023-05-10T18:01:21.423Z,94711.81
2023-05-10T18:03:51.823Z,94724.06
2023-05-10T18:06:19.443Z,94722.66
2023-05-10T18:08:47.064Z,94723.88
2023-05-10T18:11:14.767Z,94724.59
2023-05-10T18:13:43.673Z,94716.16
2023-05-10T18:16:12.711Z,94731.41
2023-05-10T18:18:40.739Z,94721.06
2023-05-10T18:21:08.408Z,94725.09
2023-05-10T18:23:36.139Z,94720.66
2023-05-10T18:26:03.849Z,94727.50
2023-05-10T18:28:31.506Z,94716.84
2023-05-10T18:31:00.503Z,94723.97
2023-05-10T18:33:28.188Z,94724.78
2023-05-10T18:35:55.811Z,94730.47
2023-05-10T18:38:23.510Z,94729.31
2023-05-10T18:40:51.571Z,94729.78
2023-05-10T18:43:19.235Z,94727.50
2023-05-10T18:45:46.928Z,94724.50
2023-05-10T18:48:15.932Z,94732.41
2023-05-10T18:50:43.510Z,94734.88
2023-05-10T18:53:11.120Z,94732.03
2023-05-10T18:55:38.701Z,94740.97
2023-05-10T18:58:06.310Z,94740.69
2023-05-10T19:00:34.055Z,94739.53
2023-05-10T19:03:01.728Z,94740.69
2023-05-10T19:05:31.615Z,94741.09
2023-05-10T19:07:59.237Z,94740.19
2023-05-10T19:10:26.811Z,94736.72
2023-05-10T19:12:54.408Z,94744.00
2023-05-10T19:15:22.417Z,94745.13
2023-05-10T19:17:50.994Z,94746.19
2023-05-10T19:20:18.710Z,94748.53
2023-05-10T19:23:02.034Z,94755.41
2023-05-10T19:25:30.308Z,94756.31
2023-05-10T19:27:58.492Z,94748.16
2023-05-10T19:30:26.466Z,94745.66
2023-05-10T19:32:54.273Z,94745.19
2023-05-10T19:35:21.993Z,94754.56
2023-05-10T19:37:50.963Z,94744.50
2023-05-10T19:40:19.008Z,94741.78
2023-05-10T19:42:46.632Z,94742.72
2023-05-10T19:45:15.717Z,94750.63
2023-05-10T19:47:43.815Z,94746.00
2023-05-10T19:50:12.401Z,94751.28
2023-05-10T19:52:40.250Z,94746.56
2023-05-10T19:55:09.798Z,94747.56
2023-05-10T19:57:37.435Z,94748.63
2023-05-10T20:00:06.562Z,94744.59
2023-05-10T20:02:34.195Z,94747.06
2023-05-10T20:05:01.877Z,94741.78
2023-05-10T20:07:30.205Z,94739.63
2023-05-10T20:09:57.821Z,94738.91
2023-05-10T20:12:27.302Z,94745.50
2023-05-10T20:14:54.903Z,94753.81
2023-05-10T20:17:22.596Z,94751.09
2023-05-10T20:19:50.225Z,94752.06
2023-05-10T20:22:18.245Z,94744.88
2023-05-10T20:24:46.500Z,94749.75
2023-05-10T20:27:14.333Z,94749.75
2023-05-10T20:29:44.116Z,94738.56
2023-05-10T20:32:11.765Z,94729.84
2023-05-10T20:34:39.362Z,94733.91
2023-05-10T20:37:07.117Z,94734.06
2023-05-10T20:39:34.747Z,94742.78
2023-05-10T20:42:02.386Z,94746.06
2023-05-10T20:44:29.996Z,94742.97
2023-05-10T20:46:59.012Z,94751.72
2023-05-10T20:49:27.986Z,94742.63
2023-05-10T20:51:55.768Z,94740.63
2023-05-10T20:54:24.306Z,94733.09
2023-05-10T20:56:52.084Z,94737.44
2023-05-10T20:59:19.950Z,94741.81
2023-05-10T21:01:47.647Z,94739.59
2023-05-10T21:04:16.629Z,94735.19
2023-05-10T21:06:44.732Z,94732.56
2023-05-10T21:09:12.372Z,94724.34
2023-05-10T21:11:39.998Z,94730.84
2023-05-10T21:14:07.847Z,94724.84
2023-05-10T21:16:35.639Z,94730.84
2023-05-10T21:19:03.573Z,94725.91
2023-05-10T21:21:32.605Z,94725.44
2023-05-10T21:24:00.227Z,94717.28
2023-05-10T21:26:27.837Z,94714.06
2023-05-10T21:28:55.708Z,94721.63
2023-05-10T21:31:23.422Z,94721.06
2023-05-10T21:33:51.102Z,94724.59
2023-05-10T21:36:18.742Z,94722.22
2023-05-10T21:38:48.476Z,94728.16
2023-05-10T21:41:16.126Z,94719.91
2023-05-10T21:43:44.013Z,94720.22
2023-05-10T21:46:13.105Z,94719.06
2023-05-10T21:48:40.948Z,94713.19
2023-05-10T21:51:08.581Z,94723.00
2023-05-10T21:53:37.192Z,94727.34
2023-05-10T21:56:07.194Z,94716.00
2023-05-10T21:58:34.782Z,94717.66
2023-05-10T22:01:02.546Z,94720.97
2023-05-10T22:03:30.367Z,94726.22
2023-05-10T22:05:58.016Z,94722.75
2023-05-10T22:08:25.705Z,94723.91
2023-05-10T22:10:53.329Z,94728.28
2023-05-10T22:13:22.316Z,94721.34
2023-05-10T22:15:50.132Z,94720.78
2023-05-10T22:18:17.862Z,94725.16
2023-05-10T22:20:46.452Z,94723.00
2023-05-10T22:23:14.257Z,94718.38
2023-05-10T22:25:41.905Z,94722.91
2023-05-10T22:28:09.599Z,94719.13
2023-05-10T22:30:38.646Z,94724.78
2023-05-10T22:33:06.545Z,94722.91
2023-05-10T22:35:34.279Z,94714.78
2023-05-10T22:38:02.105Z,94724.94
2023-05-10T22:40:29.710Z,94715.72
2023-05-10T22:42:57.360Z,94711.44
2023-05-10T22:45:25.046Z,94714.06
2023-05-10T22:47:54.115Z,94712.34
2023-05-10T22:50:22.172Z,94712.09
2023-05-10T22:52:49.855Z,94709.63
2023-05-10T22:55:17.841Z,94705.25
2023-05-10T22:57:45.560Z,94710.53
2023-05-10T23:00:14.134Z,94711.97
2023-05-10T23:02:41.863Z,94707.34
2023-05-10T23:05:11.205Z,94710.78
2023-05-10T23:07:38.884Z,94709.47
2023-05-10T23:10:07.628Z,94715.16
2023-05-10T23:12:35.276Z,94716.59
2023-05-10T23:15:02.887Z,94714.44
2023-05-10T23:17:30.578Z,94712.25
2023-05-10T23:19:58.196Z,94712.25
2023-05-10T23:22:27.190Z,94706.44
2023-05-10T23:24:54.777Z,94709.28
2023-05-10T23:27:22.504Z,94707.97
2023-05-10T23:29:52.281Z,94704.91
2023-05-10T23:32:19.936Z,94713.44
2023-05-10T23:34:47.543Z,94707.53
2023-05-10T23:37:15.871Z,94713.06
2023-05-10T23:39:44.838Z,94706.31
2023-05-10T23:42:12.636Z,94714.72
2023-05-10T23:44:40.250Z,94700.16
2023-05-10T23:47:07.891Z,94695.44
2023-05-10T23:49:35.506Z,94703.00
2023-05-10T23:52:03.210Z,94699.88
2023-05-10T23:54:30.967Z,94704.97
2023-05-10T23:56:59.944Z,94698.34
2023-05-10T23:59:27.797Z,94695.88
